Aérodrome :
LOGIN :

S'inscrire | Disclaimer

   EN    FR    IT 

 










Légende :    VFR   VFR Marginal   IFR   IFR Intensif   IFR Très Intensif
Visi : 
Plafond : 
>= 8 km
>= 3000ft
5 à 8 km
1000 à 3000 ft
1500m à 5 km
500 à 1000 ft
800 à 1500m
200 à 500 ft
< 800m
< 200 ft
Symboles :   Orages  Brouillard  Fortes neiges  Fortes précipitations  Vent > 20 kt
SIGMETs :   Divers  Orages  Givrage  Turbulence  Onde Orograph.  Cendres Volcan.







- Altitude de l'aérodrome : 194 ft
- Code IATA : IEG


EPZG - Zielona Gora Babimost

DERNIER METAR :
  • 250630Z 18007KT CAVOK 11/03 Q1002

METARs EXPIRÉS :
  • 250600Z 20005KT 160V220 CAVOK 10/03 Q1002
  • 250530Z 17004KT CAVOK 08/02 Q1002
  • 250500Z 22003KT 200V260 CAVOK 06/02 Q1002
  • 250430Z 24002KT CAVOK 06/02 Q1002
  • 250400Z 20002KT CAVOK 06/01 Q1003
  • 250330Z 23003KT 190V260 CAVOK 05/01 Q1003

TAF TAF EPZG
Valide du 25 à 06h jusqu'au 25 à 15h UTC


250530Z 2506/2515 20008KT CAVOK
BECMG 2509/2512 27012KT
TEMPO 2509/2515 25015G25KT
PROB40
TEMPO 2512/2515 SHRA BKN033CB
Pas de NOTAMs connus pour ce terrain.



MET'MAP, la Météo Aéronautique d'un coup d'oeil ! - Copyright ORBIFLY Décembre 2007 - Disclaimer

ORBIFLY MET'MAP TEAM :

Programmation & Développement : Alexandra Zaïnal
Conception & Développement : Baudouin d'Aumeries
Co-Programmation & Développement : Marc-Olivier Méhu
Soutien technique & logistique : Manuel Goepfert

Contact : metmap@orbifly.com




SOURCES & CREDITS :

   NOAA